sensor_id;sensor_type;location;lat;lon;timestamp;P1;durP1;ratioP1;P2;durP2;ratioP2
67819;SDS011;54618;52.018;5.576;2024-03-02T00:00:06;1.48;;;0.63;;
67819;SDS011;54618;52.018;5.576;2024-03-02T00:02:44;2.95;;;0.88;;
67819;SDS011;54618;52.018;5.576;2024-03-02T00:05:15;2.20;;;1.02;;
67819;SDS011;54618;52.018;5.576;2024-03-02T00:07:47;2.13;;;1.00;;
67819;SDS011;54618;52.018;5.576;2024-03-02T00:10:19;3.50;;;0.80;;
67819;SDS011;54618;52.018;5.576;2024-03-02T00:12:48;1.45;;;0.80;;
67819;SDS011;54618;52.018;5.576;2024-03-02T00:18:04;2.70;;;0.95;;
67819;SDS011;54618;52.018;5.576;2024-03-02T00:20:29;1.52;;;1.00;;
67819;SDS011;54618;52.018;5.576;2024-03-02T00:23:14;2.47;;;0.75;;
67819;SDS011;54618;52.018;5.576;2024-03-02T00:25:48;1.83;;;0.80;;
67819;SDS011;54618;52.018;5.576;2024-03-02T00:30:52;3.53;;;0.90;;
67819;SDS011;54618;52.018;5.576;2024-03-02T00:33:22;3.90;;;0.98;;
67819;SDS011;54618;52.018;5.576;2024-03-02T00:35:48;3.65;;;0.80;;
67819;SDS011;54618;52.018;5.576;2024-03-02T00:38:15;1.85;;;0.95;;
67819;SDS011;54618;52.018;5.576;2024-03-02T00:40:41;2.60;;;1.10;;
67819;SDS011;54618;52.018;5.576;2024-03-02T00:46:05;3.17;;;0.80;;
67819;SDS011;54618;52.018;5.576;2024-03-02T00:48:31;3.05;;;0.90;;
67819;SDS011;54618;52.018;5.576;2024-03-02T00:50:57;2.22;;;0.80;;
67819;SDS011;54618;52.018;5.576;2024-03-02T00:53:23;2.65;;;0.90;;
67819;SDS011;54618;52.018;5.576;2024-03-02T00:55:51;1.88;;;0.68;;
67819;SDS011;54618;52.018;5.576;2024-03-02T00:58:17;2.70;;;0.80;;
67819;SDS011;54618;52.018;5.576;2024-03-02T01:00:42;2.08;;;0.60;;
67819;SDS011;54618;52.018;5.576;2024-03-02T01:03:08;1.33;;;0.65;;
67819;SDS011;54618;52.018;5.576;2024-03-02T01:05:35;1.42;;;0.50;;
67819;SDS011;54618;52.018;5.576;2024-03-02T01:08:01;1.10;;;0.35;;
67819;SDS011;54618;52.018;5.576;2024-03-02T01:10:27;1.10;;;0.50;;
67819;SDS011;54618;52.018;5.576;2024-03-02T01:12:52;1.27;;;0.40;;
67819;SDS011;54618;52.018;5.576;2024-03-02T01:15:18;1.50;;;0.50;;
67819;SDS011;54618;52.018;5.576;2024-03-02T01:17:44;0.77;;;0.40;;
67819;SDS011;54618;52.018;5.576;2024-03-02T01:20:09;0.47;;;0.32;;
67819;SDS011;54618;52.018;5.576;2024-03-02T01:22:35;0.73;;;0.40;;
67819;SDS011;54618;52.018;5.576;2024-03-02T01:25:02;0.95;;;0.35;;
67819;SDS011;54618;52.018;5.576;2024-03-02T01:27:28;0.63;;;0.40;;
67819;SDS011;54618;52.018;5.576;2024-03-02T01:29:53;0.60;;;0.38;;
67819;SDS011;54618;52.018;5.576;2024-03-02T01:32:19;1.95;;;0.40;;
67819;SDS011;54618;52.018;5.576;2024-03-02T01:34:45;0.88;;;0.30;;
67819;SDS011;54618;52.018;5.576;2024-03-02T01:37:13;1.67;;;0.38;;
67819;SDS011;54618;52.018;5.576;2024-03-02T01:39:39;0.55;;;0.30;;
67819;SDS011;54618;52.018;5.576;2024-03-02T01:42:05;0.68;;;0.40;;
67819;SDS011;54618;52.018;5.576;2024-03-02T01:44:31;0.63;;;0.20;;
67819;SDS011;54618;52.018;5.576;2024-03-02T01:46:57;0.43;;;0.30;;
67819;SDS011;54618;52.018;5.576;2024-03-02T01:49:22;0.57;;;0.25;;
67819;SDS011;54618;52.018;5.576;2024-03-02T01:51:48;0.90;;;0.38;;
67819;SDS011;54618;52.018;5.576;2024-03-02T01:54:14;1.90;;;0.40;;
67819;SDS011;54618;52.018;5.576;2024-03-02T01:56:39;1.38;;;0.40;;
67819;SDS011;54618;52.018;5.576;2024-03-02T01:59:05;0.63;;;0.25;;
67819;SDS011;54618;52.018;5.576;2024-03-02T02:01:31;0.65;;;0.30;;
67819;SDS011;54618;52.018;5.576;2024-03-02T02:03:56;0.82;;;0.40;;
67819;SDS011;54618;52.018;5.576;2024-03-02T02:06:22;0.70;;;0.35;;
67819;SDS011;54618;52.018;5.576;2024-03-02T02:08:48;1.17;;;0.40;;
67819;SDS011;54618;52.018;5.576;2024-03-02T02:11:16;0.75;;;0.30;;
67819;SDS011;54618;52.018;5.576;2024-03-02T02:13:42;0.40;;;0.30;;
67819;SDS011;54618;52.018;5.576;2024-03-02T02:16:08;0.90;;;0.40;;
67819;SDS011;54618;52.018;5.576;2024-03-02T02:18:34;1.10;;;0.30;;
67819;SDS011;54618;52.018;5.576;2024-03-02T02:21:01;0.57;;;0.30;;
67819;SDS011;54618;52.018;5.576;2024-03-02T02:23:27;0.47;;;0.30;;
67819;SDS011;54618;52.018;5.576;2024-03-02T02:25:52;0.63;;;0.20;;
67819;SDS011;54618;52.018;5.576;2024-03-02T02:28:18;0.40;;;0.35;;
67819;SDS011;54618;52.018;5.576;2024-03-02T02:30:43;0.55;;;0.35;;
67819;SDS011;54618;52.018;5.576;2024-03-02T02:33:09;0.52;;;0.30;;
67819;SDS011;54618;52.018;5.576;2024-03-02T02:35:35;0.98;;;0.30;;
67819;SDS011;54618;52.018;5.576;2024-03-02T02:38:00;0.68;;;0.28;;
67819;SDS011;54618;52.018;5.576;2024-03-02T02:40:28;0.30;;;0.30;;
67819;SDS011;54618;52.018;5.576;2024-03-02T02:42:57;0.57;;;0.30;;
67819;SDS011;54618;52.018;5.576;2024-03-02T02:45:24;1.25;;;0.52;;
67819;SDS011;54618;52.018;5.576;2024-03-02T02:47:50;0.40;;;0.22;;
67819;SDS011;54618;52.018;5.576;2024-03-02T02:50:15;0.30;;;0.22;;
67819;SDS011;54618;52.018;5.576;2024-03-02T02:52:44;0.85;;;0.30;;
67819;SDS011;54618;52.018;5.576;2024-03-02T02:55:10;1.15;;;0.38;;
67819;SDS011;54618;52.018;5.576;2024-03-02T02:57:41;0.38;;;0.30;;
67819;SDS011;54618;52.018;5.576;2024-03-02T03:00:11;2.15;;;0.40;;
67819;SDS011;54618;52.018;5.576;2024-03-02T03:02:44;0.93;;;0.22;;
67819;SDS011;54618;52.018;5.576;2024-03-02T03:05:14;0.65;;;0.40;;
67819;SDS011;54618;52.018;5.576;2024-03-02T03:07:40;1.00;;;0.43;;
67819;SDS011;54618;52.018;5.576;2024-03-02T03:10:07;0.35;;;0.30;;
67819;SDS011;54618;52.018;5.576;2024-03-02T03:12:33;0.93;;;0.40;;
67819;SDS011;54618;52.018;5.576;2024-03-02T03:14:59;1.13;;;0.40;;
67819;SDS011;54618;52.018;5.576;2024-03-02T03:17:25;1.35;;;0.40;;
67819;SDS011;54618;52.018;5.576;2024-03-02T03:19:52;1.40;;;0.38;;
67819;SDS011;54618;52.018;5.576;2024-03-02T03:22:18;0.85;;;0.40;;
67819;SDS011;54618;52.018;5.576;2024-03-02T03:24:44;2.15;;;0.50;;
67819;SDS011;54618;52.018;5.576;2024-03-02T03:27:09;0.70;;;0.40;;
67819;SDS011;54618;52.018;5.576;2024-03-02T03:29:36;0.57;;;0.40;;
67819;SDS011;54618;52.018;5.576;2024-03-02T03:32:02;0.63;;;0.40;;
67819;SDS011;54618;52.018;5.576;2024-03-02T03:34:29;0.20;;;0.20;;
67819;SDS011;54618;52.018;5.576;2024-03-02T03:36:57;1.75;;;0.40;;
67819;SDS011;54618;52.018;5.576;2024-03-02T03:39:23;2.13;;;0.50;;
67819;SDS011;54618;52.018;5.576;2024-03-02T03:41:48;0.50;;;0.30;;
67819;SDS011;54618;52.018;5.576;2024-03-02T03:44:14;0.50;;;0.32;;
67819;SDS011;54618;52.018;5.576;2024-03-02T03:46:40;0.73;;;0.38;;
67819;SDS011;54618;52.018;5.576;2024-03-02T03:49:05;0.80;;;0.40;;
67819;SDS011;54618;52.018;5.576;2024-03-02T03:51:31;0.38;;;0.35;;
67819;SDS011;54618;52.018;5.576;2024-03-02T03:53:56;0.65;;;0.30;;
67819;SDS011;54618;52.018;5.576;2024-03-02T03:56:22;0.77;;;0.40;;
67819;SDS011;54618;52.018;5.576;2024-03-02T03:58:48;0.75;;;0.32;;
67819;SDS011;54618;52.018;5.576;2024-03-02T04:01:13;2.90;;;0.35;;
67819;SDS011;54618;52.018;5.576;2024-03-02T04:03:39;0.85;;;0.40;;
67819;SDS011;54618;52.018;5.576;2024-03-02T04:06:04;1.17;;;0.30;;
67819;SDS011;54618;52.018;5.576;2024-03-02T04:08:30;1.45;;;0.40;;
67819;SDS011;54618;52.018;5.576;2024-03-02T04:10:56;1.73;;;0.30;;
67819;SDS011;54618;52.018;5.576;2024-03-02T04:13:21;0.90;;;0.30;;
67819;SDS011;54618;52.018;5.576;2024-03-02T04:15:47;0.77;;;0.50;;
67819;SDS011;54618;52.018;5.576;2024-03-02T04:18:12;1.13;;;0.40;;
67819;SDS011;54618;52.018;5.576;2024-03-02T04:20:38;0.45;;;0.40;;
67819;SDS011;54618;52.018;5.576;2024-03-02T04:23:04;0.95;;;0.30;;
67819;SDS011;54618;52.018;5.576;2024-03-02T04:25:29;0.57;;;0.30;;
67819;SDS011;54618;52.018;5.576;2024-03-02T04:27:55;0.52;;;0.25;;
67819;SDS011;54618;52.018;5.576;2024-03-02T04:30:20;1.25;;;0.50;;
67819;SDS011;54618;52.018;5.576;2024-03-02T04:32:46;0.73;;;0.38;;
67819;SDS011;54618;52.018;5.576;2024-03-02T04:35:12;0.95;;;0.38;;
67819;SDS011;54618;52.018;5.576;2024-03-02T04:37:38;0.70;;;0.30;;
67819;SDS011;54618;52.018;5.576;2024-03-02T04:40:04;0.70;;;0.30;;
67819;SDS011;54618;52.018;5.576;2024-03-02T04:42:33;0.28;;;0.22;;
67819;SDS011;54618;52.018;5.576;2024-03-02T04:44:59;1.17;;;0.35;;
67819;SDS011;54618;52.018;5.576;2024-03-02T04:47:25;1.35;;;0.38;;
67819;SDS011;54618;52.018;5.576;2024-03-02T04:49:51;1.50;;;0.40;;
67819;SDS011;54618;52.018;5.576;2024-03-02T04:52:16;1.00;;;0.35;;
67819;SDS011;54618;52.018;5.576;2024-03-02T04:54:42;0.95;;;0.50;;
67819;SDS011;54618;52.018;5.576;2024-03-02T04:57:26;0.32;;;0.30;;
67819;SDS011;54618;52.018;5.576;2024-03-02T04:59:52;1.40;;;0.50;;
67819;SDS011;54618;52.018;5.576;2024-03-02T05:02:18;0.95;;;0.32;;
67819;SDS011;54618;52.018;5.576;2024-03-02T05:04:43;0.98;;;0.30;;
67819;SDS011;54618;52.018;5.576;2024-03-02T05:07:09;0.20;;;0.20;;
67819;SDS011;54618;52.018;5.576;2024-03-02T05:09:35;0.63;;;0.40;;
67819;SDS011;54618;52.018;5.576;2024-03-02T05:12:00;4.60;;;0.40;;
67819;SDS011;54618;52.018;5.576;2024-03-02T05:14:45;1.05;;;0.30;;
67819;SDS011;54618;52.018;5.576;2024-03-02T05:17:11;0.57;;;0.40;;
67819;SDS011;54618;52.018;5.576;2024-03-02T05:19:37;1.05;;;0.32;;
67819;SDS011;54618;52.018;5.576;2024-03-02T05:22:03;0.47;;;0.30;;
67819;SDS011;54618;52.018;5.576;2024-03-02T05:24:29;1.15;;;0.43;;
67819;SDS011;54618;52.018;5.576;2024-03-02T05:26:55;1.67;;;0.22;;
67819;SDS011;54618;52.018;5.576;2024-03-02T05:29:20;1.17;;;0.28;;
67819;SDS011;54618;52.018;5.576;2024-03-02T05:31:46;1.50;;;0.60;;
67819;SDS011;54618;52.018;5.576;2024-03-02T05:34:12;0.93;;;0.30;;
67819;SDS011;54618;52.018;5.576;2024-03-02T05:36:38;1.23;;;0.50;;
67819;SDS011;54618;52.018;5.576;2024-03-02T05:39:04;0.47;;;0.30;;
67819;SDS011;54618;52.018;5.576;2024-03-02T05:41:33;0.63;;;0.32;;
67819;SDS011;54618;52.018;5.576;2024-03-02T05:43:59;0.60;;;0.30;;
67819;SDS011;54618;52.018;5.576;2024-03-02T05:46:25;2.92;;;0.45;;
67819;SDS011;54618;52.018;5.576;2024-03-02T05:48:51;2.65;;;0.50;;
67819;SDS011;54618;52.018;5.576;2024-03-02T05:51:17;0.77;;;0.40;;
67819;SDS011;54618;52.018;5.576;2024-03-02T05:53:43;1.30;;;0.45;;
67819;SDS011;54618;52.018;5.576;2024-03-02T05:56:08;0.90;;;0.45;;
67819;SDS011;54618;52.018;5.576;2024-03-02T05:58:34;2.00;;;0.50;;
67819;SDS011;54618;52.018;5.576;2024-03-02T06:01:18;1.55;;;0.50;;
67819;SDS011;54618;52.018;5.576;2024-03-02T06:03:44;1.20;;;0.40;;
67819;SDS011;54618;52.018;5.576;2024-03-02T06:06:10;1.70;;;0.40;;
67819;SDS011;54618;52.018;5.576;2024-03-02T06:08:35;1.67;;;0.52;;
67819;SDS011;54618;52.018;5.576;2024-03-02T06:11:01;1.17;;;0.30;;
67819;SDS011;54618;52.018;5.576;2024-03-02T06:13:27;2.55;;;0.45;;
67819;SDS011;54618;52.018;5.576;2024-03-02T06:15:52;0.57;;;0.30;;
67819;SDS011;54618;52.018;5.576;2024-03-02T06:18:18;2.05;;;0.40;;
67819;SDS011;54618;52.018;5.576;2024-03-02T06:20:44;2.05;;;0.50;;
67819;SDS011;54618;52.018;5.576;2024-03-02T06:23:09;0.93;;;0.40;;
67819;SDS011;54618;52.018;5.576;2024-03-02T06:25:35;0.45;;;0.40;;
67819;SDS011;54618;52.018;5.576;2024-03-02T06:28:00;0.63;;;0.40;;
67819;SDS011;54618;52.018;5.576;2024-03-02T06:30:26;0.77;;;0.40;;
67819;SDS011;54618;52.018;5.576;2024-03-02T06:32:52;1.13;;;0.60;;
67819;SDS011;54618;52.018;5.576;2024-03-02T06:35:17;1.15;;;0.55;;
67819;SDS011;54618;52.018;5.576;2024-03-02T06:37:43;1.67;;;0.55;;
67819;SDS011;54618;52.018;5.576;2024-03-02T06:40:09;2.65;;;0.60;;
67819;SDS011;54618;52.018;5.576;2024-03-02T06:42:35;1.13;;;0.45;;
67819;SDS011;54618;52.018;5.576;2024-03-02T06:45:01;2.50;;;0.40;;
67819;SDS011;54618;52.018;5.576;2024-03-02T06:47:27;1.63;;;0.55;;
67819;SDS011;54618;52.018;5.576;2024-03-02T06:49:53;1.60;;;0.60;;
67819;SDS011;54618;52.018;5.576;2024-03-02T06:52:19;1.17;;;0.40;;
67819;SDS011;54618;52.018;5.576;2024-03-02T06:54:45;1.27;;;0.50;;
67819;SDS011;54618;52.018;5.576;2024-03-02T06:57:11;3.25;;;0.63;;
67819;SDS011;54618;52.018;5.576;2024-03-02T06:59:37;1.02;;;0.40;;
67819;SDS011;54618;52.018;5.576;2024-03-02T07:02:02;2.33;;;0.40;;
67819;SDS011;54618;52.018;5.576;2024-03-02T07:04:28;0.90;;;0.40;;
67819;SDS011;54618;52.018;5.576;2024-03-02T07:06:54;0.70;;;0.40;;
67819;SDS011;54618;52.018;5.576;2024-03-02T07:09:20;2.13;;;0.40;;
67819;SDS011;54618;52.018;5.576;2024-03-02T07:11:47;2.08;;;0.40;;
67819;SDS011;54618;52.018;5.576;2024-03-02T07:14:13;1.25;;;0.40;;
67819;SDS011;54618;52.018;5.576;2024-03-02T07:16:39;2.92;;;0.50;;
67819;SDS011;54618;52.018;5.576;2024-03-02T07:19:05;0.77;;;0.30;;
67819;SDS011;54618;52.018;5.576;2024-03-02T07:21:31;1.38;;;0.55;;
67819;SDS011;54618;52.018;5.576;2024-03-02T07:23:58;3.85;;;0.50;;
67819;SDS011;54618;52.018;5.576;2024-03-02T07:26:24;0.70;;;0.40;;
67819;SDS011;54618;52.018;5.576;2024-03-02T07:28:50;2.40;;;0.50;;
67819;SDS011;54618;52.018;5.576;2024-03-02T07:31:16;0.95;;;0.40;;
67819;SDS011;54618;52.018;5.576;2024-03-02T07:33:45;4.13;;;0.93;;
67819;SDS011;54618;52.018;5.576;2024-03-02T07:36:13;1.52;;;0.52;;
67819;SDS011;54618;52.018;5.576;2024-03-02T07:38:39;2.85;;;0.60;;
67819;SDS011;54618;52.018;5.576;2024-03-02T07:41:05;1.70;;;0.35;;
67819;SDS011;54618;52.018;5.576;2024-03-02T07:43:31;1.20;;;0.47;;
67819;SDS011;54618;52.018;5.576;2024-03-02T07:45:58;2.47;;;0.60;;
67819;SDS011;54618;52.018;5.576;2024-03-02T07:48:24;2.35;;;0.60;;
67819;SDS011;54618;52.018;5.576;2024-03-02T07:50:50;1.95;;;0.70;;
67819;SDS011;54618;52.018;5.576;2024-03-02T07:53:16;1.85;;;0.50;;
67819;SDS011;54618;52.018;5.576;2024-03-02T07:55:41;1.45;;;0.40;;
67819;SDS011;54618;52.018;5.576;2024-03-02T07:58:07;1.73;;;0.40;;
67819;SDS011;54618;52.018;5.576;2024-03-02T08:00:33;0.95;;;0.30;;
67819;SDS011;54618;52.018;5.576;2024-03-02T08:03:00;0.35;;;0.30;;
67819;SDS011;54618;52.018;5.576;2024-03-02T08:05:29;0.73;;;0.43;;
67819;SDS011;54618;52.018;5.576;2024-03-02T08:07:54;1.90;;;0.60;;
67819;SDS011;54618;52.018;5.576;2024-03-02T08:10:20;2.10;;;0.50;;
67819;SDS011;54618;52.018;5.576;2024-03-02T08:12:46;2.28;;;0.40;;
67819;SDS011;54618;52.018;5.576;2024-03-02T08:15:11;2.17;;;0.40;;
67819;SDS011;54618;52.018;5.576;2024-03-02T08:17:40;1.13;;;0.40;;
67819;SDS011;54618;52.018;5.576;2024-03-02T08:20:10;1.70;;;0.40;;
67819;SDS011;54618;52.018;5.576;2024-03-02T08:22:36;2.30;;;0.73;;
67819;SDS011;54618;52.018;5.576;2024-03-02T08:25:02;2.40;;;0.50;;
67819;SDS011;54618;52.018;5.576;2024-03-02T08:27:28;1.35;;;0.43;;
67819;SDS011;54618;52.018;5.576;2024-03-02T08:29:54;2.35;;;0.55;;
67819;SDS011;54618;52.018;5.576;2024-03-02T08:32:19;1.58;;;0.30;;
67819;SDS011;54618;52.018;5.576;2024-03-02T08:34:45;4.25;;;0.60;;
67819;SDS011;54618;52.018;5.576;2024-03-02T08:37:10;3.17;;;0.68;;
67819;SDS011;54618;52.018;5.576;2024-03-02T08:39:36;1.45;;;0.40;;
67819;SDS011;54618;52.018;5.576;2024-03-02T08:42:02;3.22;;;0.70;;
67819;SDS011;54618;52.018;5.576;2024-03-02T08:44:29;3.47;;;0.80;;
67819;SDS011;54618;52.018;5.576;2024-03-02T08:46:55;2.28;;;0.40;;
67819;SDS011;54618;52.018;5.576;2024-03-02T08:49:20;2.47;;;0.40;;
67819;SDS011;54618;52.018;5.576;2024-03-02T08:51:46;1.30;;;0.30;;
67819;SDS011;54618;52.018;5.576;2024-03-02T08:54:19;2.88;;;0.50;;
67819;SDS011;54618;52.018;5.576;2024-03-02T08:56:48;2.55;;;0.60;;
67819;SDS011;54618;52.018;5.576;2024-03-02T08:59:15;1.20;;;0.60;;
67819;SDS011;54618;52.018;5.576;2024-03-02T09:01:41;3.55;;;0.60;;
67819;SDS011;54618;52.018;5.576;2024-03-02T09:04:07;3.88;;;0.77;;
67819;SDS011;54618;52.018;5.576;2024-03-02T09:06:34;3.65;;;0.50;;
67819;SDS011;54618;52.018;5.576;2024-03-02T09:08:59;1.55;;;0.60;;
67819;SDS011;54618;52.018;5.576;2024-03-02T09:11:25;1.35;;;0.40;;
67819;SDS011;54618;52.018;5.576;2024-03-02T09:13:51;2.30;;;0.65;;
67819;SDS011;54618;52.018;5.576;2024-03-02T09:16:18;1.88;;;0.38;;
67819;SDS011;54618;52.018;5.576;2024-03-02T09:18:44;2.45;;;0.60;;
67819;SDS011;54618;52.018;5.576;2024-03-02T09:21:10;6.85;;;0.60;;
67819;SDS011;54618;52.018;5.576;2024-03-02T09:23:35;2.75;;;0.93;;
67819;SDS011;54618;52.018;5.576;2024-03-02T09:26:01;4.65;;;0.80;;
67819;SDS011;54618;52.018;5.576;2024-03-02T09:28:28;1.42;;;0.70;;
67819;SDS011;54618;52.018;5.576;2024-03-02T09:30:53;3.90;;;0.70;;
67819;SDS011;54618;52.018;5.576;2024-03-02T09:33:19;3.95;;;0.60;;
67819;SDS011;54618;52.018;5.576;2024-03-02T09:35:45;5.32;;;0.70;;
67819;SDS011;54618;52.018;5.576;2024-03-02T09:38:10;1.98;;;0.50;;
67819;SDS011;54618;52.018;5.576;2024-03-02T09:40:36;2.33;;;0.50;;
67819;SDS011;54618;52.018;5.576;2024-03-02T09:43:01;4.53;;;0.60;;
67819;SDS011;54618;52.018;5.576;2024-03-02T09:45:28;3.03;;;0.90;;
67819;SDS011;54618;52.018;5.576;2024-03-02T09:47:54;3.33;;;0.82;;
67819;SDS011;54618;52.018;5.576;2024-03-02T09:50:20;3.42;;;0.60;;
67819;SDS011;54618;52.018;5.576;2024-03-02T09:52:49;2.90;;;0.60;;
67819;SDS011;54618;52.018;5.576;2024-03-02T09:55:15;2.35;;;0.70;;
67819;SDS011;54618;52.018;5.576;2024-03-02T09:57:43;6.20;;;0.65;;
67819;SDS011;54618;52.018;5.576;2024-03-02T10:00:09;1.88;;;0.50;;
67819;SDS011;54618;52.018;5.576;2024-03-02T10:02:39;2.20;;;0.60;;
67819;SDS011;54618;52.018;5.576;2024-03-02T10:05:09;2.05;;;0.50;;
67819;SDS011;54618;52.018;5.576;2024-03-02T10:07:35;1.73;;;0.40;;
67819;SDS011;54618;52.018;5.576;2024-03-02T10:10:12;5.55;;;0.70;;
67819;SDS011;54618;52.018;5.576;2024-03-02T10:12:41;1.30;;;0.60;;
67819;SDS011;54618;52.018;5.576;2024-03-02T10:15:06;2.63;;;0.45;;
67819;SDS011;54618;52.018;5.576;2024-03-02T10:17:34;4.13;;;0.60;;
67819;SDS011;54618;52.018;5.576;2024-03-02T10:20:00;3.22;;;0.50;;
67819;SDS011;54618;52.018;5.576;2024-03-02T10:22:54;2.58;;;0.50;;
67819;SDS011;54618;52.018;5.576;2024-03-02T10:25:29;2.13;;;0.50;;
67819;SDS011;54618;52.018;5.576;2024-03-02T10:27:59;3.85;;;0.50;;
67819;SDS011;54618;52.018;5.576;2024-03-02T10:30:27;2.63;;;0.57;;
67819;SDS011;54618;52.018;5.576;2024-03-02T10:32:53;3.67;;;0.60;;
67819;SDS011;54618;52.018;5.576;2024-03-02T10:35:20;5.95;;;1.10;;
67819;SDS011;54618;52.018;5.576;2024-03-02T10:37:48;4.13;;;0.75;;
67819;SDS011;54618;52.018;5.576;2024-03-02T10:40:14;6.65;;;1.20;;
67819;SDS011;54618;52.018;5.576;2024-03-02T10:42:41;3.97;;;0.77;;
67819;SDS011;54618;52.018;5.576;2024-03-02T10:45:07;2.60;;;0.50;;
67819;SDS011;54618;52.018;5.576;2024-03-02T10:47:35;4.10;;;0.60;;
67819;SDS011;54618;52.018;5.576;2024-03-02T10:50:03;3.75;;;0.70;;
67819;SDS011;54618;52.018;5.576;2024-03-02T10:52:34;5.53;;;0.60;;
67819;SDS011;54618;52.018;5.576;2024-03-02T10:55:02;3.00;;;0.50;;
67819;SDS011;54618;52.018;5.576;2024-03-02T11:00:19;3.17;;;0.60;;
67819;SDS011;54618;52.018;5.576;2024-03-02T11:02:51;2.42;;;0.47;;
67819;SDS011;54618;52.018;5.576;2024-03-02T11:05:27;3.00;;;0.60;;
67819;SDS011;54618;52.018;5.576;2024-03-02T11:07:56;3.72;;;0.57;;
67819;SDS011;54618;52.018;5.576;2024-03-02T11:10:28;5.10;;;1.13;;
67819;SDS011;54618;52.018;5.576;2024-03-02T11:13:05;3.25;;;0.47;;
67819;SDS011;54618;52.018;5.576;2024-03-02T11:15:34;3.65;;;0.68;;
67819;SDS011;54618;52.018;5.576;2024-03-02T11:18:02;1.90;;;0.50;;
67819;SDS011;54618;52.018;5.576;2024-03-02T11:20:30;3.28;;;0.50;;
67819;SDS011;54618;52.018;5.576;2024-03-02T11:22:56;4.03;;;0.90;;
67819;SDS011;54618;52.018;5.576;2024-03-02T11:25:23;2.88;;;0.50;;
67819;SDS011;54618;52.018;5.576;2024-03-02T11:33:02;3.58;;;0.40;;
67819;SDS011;54618;52.018;5.576;2024-03-02T11:35:35;4.05;;;0.55;;
67819;SDS011;54618;52.018;5.576;2024-03-02T11:38:13;3.53;;;0.60;;
67819;SDS011;54618;52.018;5.576;2024-03-02T11:40:39;3.20;;;0.50;;
67819;SDS011;54618;52.018;5.576;2024-03-02T11:43:06;2.15;;;0.60;;
67819;SDS011;54618;52.018;5.576;2024-03-02T11:45:33;2.90;;;0.50;;
67819;SDS011;54618;52.018;5.576;2024-03-02T11:47:59;3.90;;;0.60;;
67819;SDS011;54618;52.018;5.576;2024-03-02T11:50:28;3.33;;;0.70;;
67819;SDS011;54618;52.018;5.576;2024-03-02T11:52:55;3.25;;;0.60;;
67819;SDS011;54618;52.018;5.576;2024-03-02T11:55:25;3.50;;;0.80;;
67819;SDS011;54618;52.018;5.576;2024-03-02T11:57:54;2.83;;;0.73;;
67819;SDS011;54618;52.018;5.576;2024-03-02T12:00:20;2.42;;;1.00;;
67819;SDS011;54618;52.018;5.576;2024-03-02T12:02:46;3.65;;;0.88;;
67819;SDS011;54618;52.018;5.576;2024-03-02T12:05:24;2.17;;;0.50;;
67819;SDS011;54618;52.018;5.576;2024-03-02T12:07:55;3.55;;;0.60;;
67819;SDS011;54618;52.018;5.576;2024-03-02T12:10:27;2.75;;;0.77;;
67819;SDS011;54618;52.018;5.576;2024-03-02T12:13:01;8.95;;;0.80;;
67819;SDS011;54618;52.018;5.576;2024-03-02T12:15:32;3.03;;;0.50;;
67819;SDS011;54618;52.018;5.576;2024-03-02T12:18:04;1.65;;;0.50;;
67819;SDS011;54618;52.018;5.576;2024-03-02T12:20:32;1.75;;;0.60;;
67819;SDS011;54618;52.018;5.576;2024-03-02T12:22:58;2.00;;;0.60;;
67819;SDS011;54618;52.018;5.576;2024-03-02T12:25:25;2.30;;;0.70;;
67819;SDS011;54618;52.018;5.576;2024-03-02T12:27:53;2.97;;;0.90;;
67819;SDS011;54618;52.018;5.576;2024-03-02T12:30:20;3.78;;;0.60;;
67819;SDS011;54618;52.018;5.576;2024-03-02T12:32:47;4.47;;;0.73;;
67819;SDS011;54618;52.018;5.576;2024-03-02T12:35:13;3.22;;;0.75;;
67819;SDS011;54618;52.018;5.576;2024-03-02T12:37:49;4.68;;;0.70;;
67819;SDS011;54618;52.018;5.576;2024-03-02T12:40:17;2.38;;;0.60;;
67819;SDS011;54618;52.018;5.576;2024-03-02T12:42:46;3.70;;;0.80;;
67819;SDS011;54618;52.018;5.576;2024-03-02T12:45:12;3.22;;;0.60;;
67819;SDS011;54618;52.018;5.576;2024-03-02T12:47:42;2.00;;;0.60;;
67819;SDS011;54618;52.018;5.576;2024-03-02T12:50:08;4.30;;;0.80;;
67819;SDS011;54618;52.018;5.576;2024-03-02T12:52:34;3.00;;;0.90;;
67819;SDS011;54618;52.018;5.576;2024-03-02T12:55:01;4.70;;;0.80;;
67819;SDS011;54618;52.018;5.576;2024-03-02T12:57:29;3.95;;;0.80;;
67819;SDS011;54618;52.018;5.576;2024-03-02T12:59:59;6.70;;;0.80;;
67819;SDS011;54618;52.018;5.576;2024-03-02T13:02:35;2.67;;;0.82;;
67819;SDS011;54618;52.018;5.576;2024-03-02T13:05:02;2.08;;;0.60;;
67819;SDS011;54618;52.018;5.576;2024-03-02T13:07:28;3.38;;;0.70;;
67819;SDS011;54618;52.018;5.576;2024-03-02T13:09:54;6.00;;;0.77;;
67819;SDS011;54618;52.018;5.576;2024-03-02T13:12:21;9.18;;;0.90;;
67819;SDS011;54618;52.018;5.576;2024-03-02T13:14:48;1.58;;;0.63;;
67819;SDS011;54618;52.018;5.576;2024-03-02T13:17:15;2.33;;;0.60;;
67819;SDS011;54618;52.018;5.576;2024-03-02T13:19:51;1.42;;;0.50;;
67819;SDS011;54618;52.018;5.576;2024-03-02T13:22:21;3.42;;;0.80;;
67819;SDS011;54618;52.018;5.576;2024-03-02T13:24:47;4.45;;;0.98;;
67819;SDS011;54618;52.018;5.576;2024-03-02T13:27:16;3.20;;;1.08;;
67819;SDS011;54618;52.018;5.576;2024-03-02T13:29:45;5.20;;;1.05;;
67819;SDS011;54618;52.018;5.576;2024-03-02T13:32:12;3.10;;;0.75;;
67819;SDS011;54618;52.018;5.576;2024-03-02T13:34:42;6.50;;;1.05;;
67819;SDS011;54618;52.018;5.576;2024-03-02T13:37:08;2.58;;;0.70;;
67819;SDS011;54618;52.018;5.576;2024-03-02T13:39:34;3.20;;;0.75;;
67819;SDS011;54618;52.018;5.576;2024-03-02T13:42:06;2.55;;;0.80;;
67819;SDS011;54618;52.018;5.576;2024-03-02T13:44:36;3.50;;;0.70;;
67819;SDS011;54618;52.018;5.576;2024-03-02T13:47:02;1.90;;;0.70;;
67819;SDS011;54618;52.018;5.576;2024-03-02T13:49:28;7.07;;;0.90;;
67819;SDS011;54618;52.018;5.576;2024-03-02T13:51:59;4.28;;;1.05;;
67819;SDS011;54618;52.018;5.576;2024-03-02T13:54:25;4.65;;;1.13;;
67819;SDS011;54618;52.018;5.576;2024-03-02T13:56:51;2.78;;;0.80;;
67819;SDS011;54618;52.018;5.576;2024-03-02T13:59:17;2.05;;;0.70;;
67819;SDS011;54618;52.018;5.576;2024-03-02T14:01:43;3.08;;;0.60;;
67819;SDS011;54618;52.018;5.576;2024-03-02T14:04:09;4.15;;;1.00;;
67819;SDS011;54618;52.018;5.576;2024-03-02T14:06:35;2.85;;;0.70;;
67819;SDS011;54618;52.018;5.576;2024-03-02T14:09:01;2.28;;;0.70;;
67819;SDS011;54618;52.018;5.576;2024-03-02T14:11:26;3.10;;;0.60;;
67819;SDS011;54618;52.018;5.576;2024-03-02T14:13:52;4.72;;;0.70;;
67819;SDS011;54618;52.018;5.576;2024-03-02T14:16:19;5.15;;;0.65;;
67819;SDS011;54618;52.018;5.576;2024-03-02T14:18:45;1.67;;;0.50;;
67819;SDS011;54618;52.018;5.576;2024-03-02T14:21:11;1.58;;;0.63;;
67819;SDS011;54618;52.018;5.576;2024-03-02T14:23:37;3.22;;;0.47;;
67819;SDS011;54618;52.018;5.576;2024-03-02T14:26:02;2.50;;;0.60;;
67819;SDS011;54618;52.018;5.576;2024-03-02T14:28:28;1.88;;;0.60;;
67819;SDS011;54618;52.018;5.576;2024-03-02T14:30:54;2.42;;;0.43;;
67819;SDS011;54618;52.018;5.576;2024-03-02T14:33:19;3.33;;;0.70;;
67819;SDS011;54618;52.018;5.576;2024-03-02T14:35:46;1.85;;;0.60;;
67819;SDS011;54618;52.018;5.576;2024-03-02T14:38:12;6.07;;;1.05;;
67819;SDS011;54618;52.018;5.576;2024-03-02T14:40:38;3.42;;;0.73;;
67819;SDS011;54618;52.018;5.576;2024-03-02T14:43:03;5.75;;;0.80;;
67819;SDS011;54618;52.018;5.576;2024-03-02T14:45:29;2.03;;;0.55;;
67819;SDS011;54618;52.018;5.576;2024-03-02T14:47:55;2.88;;;0.52;;
67819;SDS011;54618;52.018;5.576;2024-03-02T14:50:21;3.47;;;0.55;;
67819;SDS011;54618;52.018;5.576;2024-03-02T14:52:46;2.38;;;0.70;;
67819;SDS011;54618;52.018;5.576;2024-03-02T14:55:12;4.95;;;0.60;;
67819;SDS011;54618;52.018;5.576;2024-03-02T14:57:38;1.45;;;0.60;;
67819;SDS011;54618;52.018;5.576;2024-03-02T15:00:03;1.73;;;0.50;;
67819;SDS011;54618;52.018;5.576;2024-03-02T15:02:32;3.70;;;0.63;;